createdAt,value
2023-04-11T00:03:39.866Z,59.98
2023-04-11T00:08:44.290Z,60.06
2023-04-11T00:13:47.633Z,59.98
2023-04-11T00:18:49.624Z,59.89
2023-04-11T00:23:54.345Z,59.87
2023-04-11T00:28:56.206Z,59.64
2023-04-11T00:33:58.273Z,59.56
2023-04-11T00:39:01.750Z,59.92
2023-04-11T00:44:03.753Z,60.14
2023-04-11T00:49:05.436Z,59.79
2023-04-11T00:54:10.259Z,59.59
2023-04-11T00:59:12.277Z,59.27
2023-04-11T01:04:14.420Z,59.07
2023-04-11T01:09:16.876Z,59.14
2023-04-11T01:14:19.065Z,59.38
2023-04-11T01:19:21.392Z,59.32
2023-04-11T01:24:23.045Z,59.80
2023-04-11T01:29:24.740Z,60.08
2023-04-11T01:34:28.301Z,59.87
2023-04-11T01:39:30.547Z,59.69
2023-04-11T01:44:33.090Z,60.11
2023-04-11T01:49:38.279Z,60.00
2023-04-11T01:54:39.911Z,60.03
2023-04-11T01:59:41.673Z,60.39
2023-04-11T02:04:43.661Z,60.62
2023-04-11T02:09:45.452Z,60.68
2023-04-11T02:14:47.004Z,61.44
2023-04-11T02:19:48.561Z,61.68
2023-04-11T02:24:51.293Z,62.08
2023-04-11T02:29:53.030Z,62.43
2023-04-11T02:34:55.894Z,63.27
2023-04-11T02:39:58.218Z,64.60
2023-04-11T02:45:00.067Z,65.65
2023-04-11T02:50:03.771Z,66.85
2023-04-11T02:55:11.521Z,67.25
2023-04-11T03:00:13.198Z,67.92
2023-04-11T03:05:21.678Z,68.21
2023-04-11T03:10:25.946Z,69.13
2023-04-11T03:15:28.414Z,70.16
2023-04-11T03:20:30.147Z,71.32
2023-04-11T03:25:31.742Z,72.05
2023-04-11T03:30:40.270Z,72.24
2023-04-11T03:35:43.160Z,72.39
2023-04-11T03:40:44.815Z,73.05
2023-04-11T03:45:51.675Z,73.63
2023-04-11T03:51:07.639Z,74.10
2023-04-11T03:56:15.104Z,73.85
2023-04-11T04:01:16.880Z,73.38
2023-04-11T04:06:19.617Z,72.58
2023-04-11T04:11:22.536Z,72.25
2023-04-11T04:16:25.023Z,72.71
2023-04-11T04:21:32.417Z,72.97
2023-04-11T04:26:34.013Z,73.63
2023-04-11T04:31:50.592Z,73.64
2023-04-11T04:36:59.427Z,73.58
2023-04-11T04:42:11.196Z,73.94
2023-04-11T04:47:15.528Z,74.34
2023-04-11T04:52:17.252Z,75.04
2023-04-11T04:57:19.088Z,76.37
2023-04-11T05:02:21.754Z,77.03
2023-04-11T05:07:26.424Z,77.12
2023-04-11T05:12:28.434Z,77.37
2023-04-11T05:17:35.947Z,77.30
2023-04-11T05:22:38.613Z,76.45
2023-04-11T05:27:40.547Z,73.52
2023-04-11T05:32:43.563Z,71.63
2023-04-11T05:37:46.088Z,71.86
2023-04-11T05:42:47.687Z,72.04
2023-04-11T05:47:50.303Z,73.26
2023-04-11T05:52:52.056Z,74.77
2023-04-11T05:57:53.642Z,76.63
2023-04-11T06:02:55.483Z,79.51
2023-04-11T06:07:58.674Z,81.27
2023-04-11T06:13:00.515Z,82.11
2023-04-11T06:18:02.159Z,82.58
2023-04-11T06:23:04.044Z,82.62
2023-04-11T06:28:05.639Z,82.81
2023-04-11T06:33:07.306Z,82.41
2023-04-11T06:38:10.321Z,82.37
2023-04-11T06:43:11.965Z,82.74
2023-04-11T06:48:13.608Z,82.63
2023-04-11T06:53:15.145Z,82.93
2023-04-11T06:58:17.152Z,83.13
2023-04-11T07:03:19.875Z,84.05
2023-04-11T07:08:22.083Z,84.06
2023-04-11T07:13:23.769Z,84.98
2023-04-11T07:18:27.297Z,85.57
2023-04-11T07:23:28.885Z,85.88
2023-04-11T07:28:31.413Z,85.99
2023-04-11T07:33:32.988Z,85.38
2023-04-11T07:38:34.671Z,85.07
2023-04-11T07:43:36.518Z,83.35
2023-04-11T07:48:38.358Z,81.45
2023-04-11T07:53:40.259Z,80.46
2023-04-11T07:58:42.047Z,80.02
2023-04-11T08:03:43.704Z,81.87
2023-04-11T08:08:46.336Z,81.98
2023-04-11T08:13:47.981Z,82.35
2023-04-11T08:18:50.837Z,83.32
2023-04-11T08:23:52.576Z,83.10
2023-04-11T08:28:54.117Z,83.96
2023-04-11T08:33:58.530Z,84.75
2023-04-11T08:39:02.173Z,84.73
2023-04-11T08:44:03.749Z,85.03
2023-04-11T08:49:05.407Z,86.21
2023-04-11T08:54:07.054Z,85.20
2023-04-11T08:59:08.659Z,84.78
2023-04-11T09:04:11.387Z,83.99
2023-04-11T09:09:28.027Z,84.47
2023-04-11T09:14:30.197Z,84.30
2023-04-11T09:19:32.635Z,85.33
2023-04-11T09:24:35.744Z,84.53
2023-04-11T09:29:38.186Z,84.79
2023-04-11T09:34:42.389Z,81.83
2023-04-11T09:39:44.883Z,81.69
2023-04-11T09:44:46.554Z,79.87
2023-04-11T09:49:48.652Z,77.93
2023-04-11T09:54:50.779Z,75.66
2023-04-11T09:59:52.563Z,77.03
2023-04-11T10:04:54.718Z,73.82
2023-04-11T10:09:56.664Z,72.97
2023-04-11T10:15:05.461Z,71.86
2023-04-11T10:20:27.212Z,71.34
2023-04-11T10:25:28.888Z,70.06
2023-04-11T10:30:39.812Z,69.80
2023-04-11T10:36:02.885Z,68.12
2023-04-11T10:41:18.479Z,69.67
2023-04-11T10:46:21.640Z,69.92
2023-04-11T10:51:24.688Z,68.17
2023-04-11T10:56:48.875Z,64.03
2023-04-11T11:01:57.199Z,64.48
2023-04-11T11:07:04.121Z,64.13
2023-04-11T11:12:07.500Z,64.92
2023-04-11T11:17:10.866Z,62.76
2023-04-11T11:22:16.438Z,62.15
2023-04-11T11:27:22.910Z,64.09
2023-04-11T11:32:28.264Z,64.62
2023-04-11T11:37:30.271Z,63.20
2023-04-11T11:42:31.824Z,62.27
2023-04-11T11:47:41.461Z,61.22
2023-04-11T11:52:44.404Z,59.28
2023-04-11T11:57:46.825Z,59.58
2023-04-11T12:02:48.599Z,58.03
2023-04-11T12:07:54.403Z,57.15
2023-04-11T12:12:56.145Z,56.39
2023-04-11T12:17:57.986Z,55.70
2023-04-11T12:23:00.455Z,57.23
2023-04-11T12:28:02.082Z,56.79
2023-04-11T12:33:03.937Z,56.08
2023-04-11T12:38:06.533Z,58.87
2023-04-11T12:43:08.167Z,56.93
2023-04-11T12:48:10.379Z,55.55
2023-04-11T12:53:12.107Z,55.55
2023-04-11T12:58:13.786Z,54.05
2023-04-11T13:03:16.291Z,52.53
2023-04-11T13:08:18.382Z,53.96
2023-04-11T13:13:20.219Z,54.14
2023-04-11T13:18:21.871Z,52.59
2023-04-11T13:23:23.635Z,48.76
2023-04-11T13:28:25.240Z,46.12
2023-04-11T13:33:27.165Z,45.37
2023-04-11T13:38:29.005Z,44.55
2023-04-11T13:43:30.811Z,46.25
2023-04-11T13:48:32.469Z,45.13
2023-04-11T13:53:34.182Z,43.64
2023-04-11T13:58:36.864Z,43.69
2023-04-11T14:03:39.245Z,44.82
2023-04-11T14:08:41.232Z,44.82
2023-04-11T14:13:42.882Z,45.23
2023-04-11T14:18:44.738Z,45.08
2023-04-11T14:23:46.320Z,45.85
2023-04-11T14:39:39.956Z,48.15
2023-04-11T14:44:41.587Z,48.24
2023-04-11T14:49:43.352Z,47.82
2023-04-11T14:54:44.993Z,47.52
2023-04-11T14:59:46.635Z,47.10
2023-04-11T15:04:48.299Z,48.76
2023-04-11T15:09:49.930Z,48.98
2023-04-11T15:14:51.546Z,48.34
2023-04-11T15:19:53.224Z,47.57
2023-04-11T15:24:54.852Z,47.60
2023-04-11T15:29:59.472Z,50.04
2023-04-11T15:35:01.477Z,52.44
2023-04-11T15:40:06.040Z,54.60
2023-04-11T15:45:07.989Z,54.36
2023-04-11T15:50:09.868Z,54.64
2023-04-11T15:55:11.441Z,54.83
2023-04-11T16:00:14.039Z,55.29
2023-04-11T16:05:16.015Z,55.03
2023-04-11T16:10:17.863Z,54.54
2023-04-11T16:15:19.729Z,54.10
2023-04-11T16:20:21.600Z,55.16
2023-04-11T16:25:23.381Z,55.35
2023-04-11T16:30:26.272Z,56.04
2023-04-11T16:35:27.953Z,56.01
2023-04-11T16:42:56.752Z,56.28
2023-04-11T16:47:58.488Z,56.42
2023-04-11T16:53:00.138Z,56.51
2023-04-11T16:58:02.014Z,57.36
2023-04-11T17:03:03.880Z,57.56
2023-04-11T17:08:05.543Z,57.18
2023-04-11T17:13:07.163Z,57.41
2023-04-11T17:18:08.846Z,57.30
2023-04-11T17:23:10.649Z,57.85
2023-04-11T17:28:12.375Z,57.98
2023-04-11T17:33:17.056Z,58.62
2023-04-11T17:38:18.760Z,58.88
2023-04-11T17:43:20.483Z,59.24
2023-04-11T17:48:23.044Z,59.34
2023-04-11T17:53:24.642Z,58.24
2023-04-11T17:58:26.424Z,58.69
2023-04-11T18:03:28.525Z,59.26
2023-04-11T18:08:43.256Z,60.15
2023-04-11T18:13:51.493Z,60.87
2023-04-11T18:18:53.225Z,61.60
2023-04-11T18:23:55.051Z,62.33
2023-04-11T18:28:56.970Z,62.89
2023-04-11T18:33:59.289Z,63.82
2023-04-11T18:39:01.529Z,64.20
2023-04-11T18:44:04.353Z,64.51
2023-04-11T18:49:08.002Z,65.13
2023-04-11T18:54:09.860Z,65.24
2023-04-11T18:59:13.222Z,65.12
2023-04-11T19:04:17.854Z,65.68
2023-04-11T19:09:21.605Z,65.77
2023-04-11T19:14:24.427Z,65.84
2023-04-11T19:19:26.107Z,65.93
2023-04-11T19:24:27.807Z,66.07
2023-04-11T19:29:29.851Z,65.94
2023-04-11T19:34:34.908Z,66.32
2023-04-11T19:39:38.953Z,66.62
2023-04-11T19:44:40.692Z,66.61
2023-04-11T19:49:42.584Z,66.68
2023-04-11T19:54:45.268Z,66.92
2023-04-11T19:59:47.178Z,66.73
2023-04-11T20:04:49.483Z,66.25
2023-04-11T20:09:51.684Z,66.27
2023-04-11T20:14:53.334Z,66.55
2023-04-11T20:19:55.601Z,66.51
2023-04-11T20:24:57.767Z,67.09
2023-04-11T20:30:00.566Z,66.67
2023-04-11T20:35:02.608Z,66.97
2023-04-11T20:40:08.074Z,67.04
2023-04-11T20:45:10.862Z,66.80
2023-04-11T20:50:14.354Z,66.84
2023-04-11T20:55:16.134Z,67.36
2023-04-11T21:00:18.577Z,67.28
2023-04-11T21:05:25.394Z,67.39
2023-04-11T21:10:27.199Z,67.89
2023-04-11T21:15:28.794Z,68.37
2023-04-11T21:20:30.408Z,67.70
2023-04-11T21:25:32.091Z,67.83
2023-04-11T21:30:33.767Z,67.78
2023-04-11T21:35:35.451Z,67.77
2023-04-11T21:40:37.163Z,67.71
2023-04-11T21:45:39.010Z,68.03
2023-04-11T21:50:40.706Z,67.80
2023-04-11T21:55:46.592Z,68.01
2023-04-11T22:00:48.259Z,67.60
2023-04-11T22:05:52.501Z,68.19
2023-04-11T22:10:54.568Z,68.10
2023-04-11T22:16:05.450Z,68.35
2023-04-11T22:21:09.482Z,68.76
2023-04-11T22:26:11.027Z,69.31
2023-04-11T22:31:13.634Z,69.37
2023-04-11T22:36:16.079Z,69.34
2023-04-11T22:41:17.677Z,69.51
2023-04-11T22:46:19.357Z,69.97
2023-04-11T22:51:21.858Z,69.95
2023-04-11T22:56:23.436Z,69.96
2023-04-11T23:01:25.195Z,70.34
2023-04-11T23:06:27.299Z,70.41
2023-04-11T23:11:28.880Z,70.88
2023-04-11T23:16:30.782Z,71.32
2023-04-11T23:21:33.178Z,71.98
2023-04-11T23:26:34.898Z,72.50
2023-04-11T23:31:36.543Z,72.68
2023-04-11T23:36:38.711Z,73.22
2023-04-11T23:41:41.498Z,73.25
2023-04-11T23:46:43.286Z,73.59
2023-04-11T23:51:44.859Z,73.64
2023-04-11T23:56:46.590Z,73.70
